createdAt,value
2023-02-15T00:01:06.797Z,100477.64
2023-02-15T00:06:10.199Z,100472.70
2023-02-15T00:11:18.016Z,100473.52
2023-02-15T00:16:22.627Z,100471.66
2023-02-15T00:21:40.081Z,100464.63
2023-02-15T00:26:45.278Z,100458.95
2023-02-15T00:31:49.491Z,100456.11
2023-02-15T00:36:53.711Z,100459.40
2023-02-15T00:41:57.822Z,100457.79
2023-02-15T00:47:03.590Z,100455.78
2023-02-15T00:52:07.042Z,100447.15
2023-02-15T00:57:10.970Z,100438.84
2023-02-15T01:02:14.863Z,100439.30
2023-02-15T01:07:21.430Z,100431.68
2023-02-15T01:12:44.551Z,100428.15
2023-02-15T01:17:52.541Z,100422.58
2023-02-15T01:22:59.705Z,100407.60
2023-02-15T01:28:03.885Z,100409.78
2023-02-15T01:33:07.520Z,100412.02
2023-02-15T01:38:20.737Z,100410.54
2023-02-15T01:43:41.568Z,100405.45
2023-02-15T01:48:52.157Z,100398.11
2023-02-15T01:54:09.067Z,100398.76
2023-02-15T01:59:19.736Z,100397.89
2023-02-15T02:04:52.694Z,100385.98
2023-02-15T02:09:56.471Z,100382.86
2023-02-15T02:15:03.260Z,100377.39
2023-02-15T02:20:27.157Z,100366.94
2023-02-15T02:25:47.876Z,100364.52
2023-02-15T02:31:39.179Z,100366.08
2023-02-15T02:36:45.883Z,100364.45
2023-02-15T02:42:07.418Z,100366.71
2023-02-15T02:47:35.855Z,100363.06
2023-02-15T02:52:47.505Z,100352.73
2023-02-15T02:58:18.050Z,100358.32
2023-02-15T03:03:31.860Z,100353.81
2023-02-15T03:08:41.658Z,100351.07
2023-02-15T03:13:46.621Z,100349.96
2023-02-15T03:18:59.007Z,100352.15
2023-02-15T03:24:27.815Z,100346.31
2023-02-15T03:29:33.442Z,100341.07
2023-02-15T03:34:40.363Z,100343.70
2023-02-15T03:39:50.820Z,100334.62
2023-02-15T03:45:03.533Z,100337.86
2023-02-15T03:50:30.706Z,100326.37
2023-02-15T03:55:35.547Z,100325.44
2023-02-15T04:01:03.748Z,100331.15
2023-02-15T04:06:07.502Z,100328.60
2023-02-15T04:11:10.875Z,100328.02
2023-02-15T04:16:14.674Z,100328.19
2023-02-15T04:21:36.729Z,100331.04
2023-02-15T04:26:40.135Z,100327.39
2023-02-15T04:31:44.149Z,100326.89
2023-02-15T04:36:47.584Z,100321.05
2023-02-15T04:41:50.951Z,100322.27
2023-02-15T04:46:54.488Z,100326.08
2023-02-15T04:51:57.792Z,100319.63
2023-02-15T04:57:01.199Z,100310.36
2023-02-15T05:02:05.024Z,100318.16
2023-02-15T05:07:08.531Z,100325.23
2023-02-15T05:12:12.874Z,100327.23
2023-02-15T05:17:17.232Z,100331.15
2023-02-15T05:22:20.909Z,100333.73
2023-02-15T05:27:42.755Z,100326.75
2023-02-15T05:32:46.994Z,100327.16
2023-02-15T05:37:50.983Z,100329.10
2023-02-15T05:42:54.349Z,100337.49
2023-02-15T05:47:59.319Z,100329.60
2023-02-15T05:53:02.850Z,100331.11
2023-02-15T05:58:06.974Z,100336.75
2023-02-15T06:03:10.472Z,100338.97
2023-02-15T06:08:14.000Z,100339.10
2023-02-15T06:13:43.066Z,100337.42
2023-02-15T06:18:46.825Z,100337.40
2023-02-15T06:23:50.245Z,100333.15
2023-02-15T06:28:53.679Z,100332.48
2023-02-15T06:34:02.496Z,100335.04
2023-02-15T06:39:06.560Z,100329.55
2023-02-15T06:44:10.359Z,100332.52
2023-02-15T06:49:13.985Z,100334.13
2023-02-15T06:54:17.817Z,100336.61
2023-02-15T06:59:21.246Z,100331.62
2023-02-15T07:04:25.177Z,100328.28
2023-02-15T07:09:28.968Z,100329.92
2023-02-15T07:14:33.074Z,100333.27
2023-02-15T07:19:36.701Z,100334.92
2023-02-15T07:24:40.236Z,100331.32
2023-02-15T07:29:43.799Z,100327.79
2023-02-15T07:34:47.146Z,100323.94
2023-02-15T07:39:51.715Z,100327.30
2023-02-15T07:44:55.320Z,100317.88
2023-02-15T07:50:08.682Z,100315.46
2023-02-15T07:55:14.901Z,100313.17
2023-02-15T08:00:31.053Z,100309.65
2023-02-15T08:05:34.837Z,100315.55
2023-02-15T08:10:56.694Z,100305.98
2023-02-15T08:16:48.770Z,100303.86
2023-02-15T08:21:58.350Z,100292.14
2023-02-15T08:27:06.845Z,100290.98
2023-02-15T08:32:16.168Z,100289.42
2023-02-15T08:37:29.756Z,100285.24
2023-02-15T08:42:36.418Z,100280.13
2023-02-15T08:47:39.921Z,100276.11
2023-02-15T08:52:43.656Z,100272.67
2023-02-15T08:57:47.106Z,100267.81
2023-02-15T09:02:51.478Z,100264.06
2023-02-15T09:07:55.018Z,100263.50
2023-02-15T09:13:06.070Z,100260.80
2023-02-15T09:18:09.691Z,100256.73
2023-02-15T09:23:25.511Z,100248.62
2023-02-15T09:28:30.618Z,100249.14
2023-02-15T09:33:54.389Z,100242.21
2023-02-15T09:39:12.784Z,100238.74
2023-02-15T09:44:33.996Z,100240.45
2023-02-15T09:50:11.986Z,100240.08
2023-02-15T09:55:56.778Z,100236.21
2023-02-15T10:01:26.101Z,100230.63
2023-02-15T10:07:14.854Z,100218.05
2023-02-15T10:12:43.729Z,100209.40
2023-02-15T10:18:07.568Z,100212.16
2023-02-15T10:23:39.676Z,100202.34
2023-02-15T10:28:47.665Z,100198.23
2023-02-15T10:34:07.694Z,100187.27
2023-02-15T10:39:22.260Z,100187.27
2023-02-15T10:45:05.438Z,100175.68
2023-02-15T10:50:37.865Z,100174.41
2023-02-15T10:56:13.746Z,100173.76
2023-02-15T11:01:26.332Z,100165.17
2023-02-15T11:06:29.938Z,100158.66
2023-02-15T11:11:42.105Z,100146.02
2023-02-15T11:16:53.225Z,100136.90
2023-02-15T11:22:01.775Z,100133.31
2023-02-15T11:27:30.244Z,100130.90
2023-02-15T11:32:40.378Z,100125.88
2023-02-15T11:37:53.450Z,100119.55
2023-02-15T11:43:12.206Z,100108.04
2023-02-15T11:48:21.488Z,100102.10
2023-02-15T11:53:28.794Z,100095.73
2023-02-15T11:58:59.664Z,100093.23
2023-02-15T12:04:07.869Z,100086.08
2023-02-15T12:09:57.463Z,100075.92
2023-02-15T12:15:03.557Z,100068.46
2023-02-15T12:20:19.113Z,100061.29
2023-02-15T12:25:28.255Z,100051.96
2023-02-15T12:30:40.845Z,100046.09
2023-02-15T12:35:45.372Z,100045.89
2023-02-15T12:41:01.079Z,100038.20
2023-02-15T12:46:38.481Z,100036.24
2023-02-15T12:52:12.474Z,100029.70
2023-02-15T12:57:36.165Z,100025.05
2023-02-15T13:02:46.020Z,100022.83
2023-02-15T13:07:52.367Z,100020.52
2023-02-15T13:12:58.882Z,100012.16
2023-02-15T13:18:03.326Z,100006.60
2023-02-15T13:23:36.433Z,99999.85
2023-02-15T13:29:32.110Z,100001.29
2023-02-15T13:34:38.525Z,99995.75
2023-02-15T13:39:48.356Z,99992.94
2023-02-15T13:45:09.629Z,99988.52
2023-02-15T13:50:42.985Z,99983.08
2023-02-15T13:55:55.869Z,99976.71
2023-02-15T14:01:36.700Z,99982.11
2023-02-15T14:06:50.771Z,99978.85
2023-02-15T14:12:22.832Z,99973.14
2023-02-15T14:17:45.150Z,99966.53
2023-02-15T14:23:02.472Z,99962.77
2023-02-15T14:28:18.978Z,99959.30
2023-02-15T14:33:39.502Z,99951.70
2023-02-15T14:39:06.138Z,99949.00
2023-02-15T14:44:17.516Z,99939.48
2023-02-15T14:49:27.462Z,99940.10
2023-02-15T14:54:31.618Z,99940.06
2023-02-15T14:59:57.031Z,99939.73
2023-02-15T15:05:10.003Z,99932.90
2023-02-15T15:10:20.956Z,99932.58
2023-02-15T15:15:33.002Z,99936.66
2023-02-15T15:20:51.242Z,99931.44
2023-02-15T15:26:28.867Z,99925.48
2023-02-15T15:31:58.663Z,99922.06
2023-02-15T15:37:20.512Z,99919.75
2023-02-15T15:42:45.396Z,99923.48
2023-02-15T15:48:07.925Z,99916.03
2023-02-15T15:53:22.326Z,99913.90
2023-02-15T15:58:26.575Z,99910.59
2023-02-15T16:03:30.226Z,99913.34
2023-02-15T16:08:39.596Z,99916.00
2023-02-15T16:13:44.181Z,99912.86
2023-02-15T16:18:51.689Z,99913.09
2023-02-15T16:24:14.960Z,99908.70
2023-02-15T16:29:29.035Z,99907.13
2023-02-15T16:34:36.169Z,99910.04
2023-02-15T16:39:42.940Z,99907.80
2023-02-15T16:44:50.963Z,99905.20
2023-02-15T16:49:57.127Z,99909.05
2023-02-15T16:55:06.277Z,99908.92
2023-02-15T17:00:29.029Z,99906.14
2023-02-15T17:05:49.380Z,99910.49
2023-02-15T17:11:06.852Z,99910.06
2023-02-15T17:16:50.764Z,99905.89
2023-02-15T17:21:59.520Z,99908.11
2023-02-15T17:27:14.594Z,99908.48
2023-02-15T17:32:44.256Z,99900.48
2023-02-15T17:37:55.878Z,99901.55
2023-02-15T17:43:02.440Z,99903.43
2023-02-15T17:48:07.222Z,99900.20
2023-02-15T17:53:36.445Z,99897.38
2023-02-15T17:58:42.627Z,99892.19
2023-02-15T18:04:16.216Z,99885.89
2023-02-15T18:09:40.866Z,99880.46
2023-02-15T18:14:45.117Z,99886.65
2023-02-15T18:19:50.340Z,99884.29
2023-02-15T18:24:54.146Z,99881.11
2023-02-15T18:29:57.885Z,99880.84
2023-02-15T18:35:02.134Z,99875.39
2023-02-15T18:40:06.233Z,99869.92
2023-02-15T18:45:41.862Z,99869.54
2023-02-15T18:50:46.744Z,99865.65
2023-02-15T18:56:01.780Z,99863.66
2023-02-15T19:01:06.092Z,99860.31
2023-02-15T19:06:14.124Z,99855.69
2023-02-15T19:11:23.655Z,99852.41
2023-02-15T19:16:35.273Z,99852.19
2023-02-15T19:21:39.780Z,99856.85
2023-02-15T19:26:45.881Z,99857.79
2023-02-15T19:31:52.270Z,99854.63
2023-02-15T19:36:56.919Z,99855.98
2023-02-15T19:42:00.371Z,99855.33
2023-02-15T19:47:04.892Z,99848.42
2023-02-15T19:52:20.794Z,99850.41
2023-02-15T19:57:25.346Z,99846.77
2023-02-15T20:02:31.295Z,99842.23
2023-02-15T20:07:40.751Z,99836.23
2023-02-15T20:12:44.895Z,99834.71
2023-02-15T20:17:49.348Z,99832.63
2023-02-15T20:22:52.940Z,99836.57
2023-02-15T20:28:01.752Z,99837.66
2023-02-15T20:33:25.367Z,99835.67
2023-02-15T20:38:38.264Z,99834.70
2023-02-15T20:44:00.746Z,99833.49
2023-02-15T20:49:07.350Z,99822.77
2023-02-15T20:54:16.621Z,99821.11
2023-02-15T20:59:24.547Z,99818.41
2023-02-15T21:04:43.345Z,99819.17
2023-02-15T21:09:47.053Z,99813.01
2023-02-15T21:14:51.141Z,99804.47
2023-02-15T21:20:25.561Z,99801.30
2023-02-15T21:25:44.488Z,99808.86
2023-02-15T21:31:04.931Z,99807.88
2023-02-15T21:36:28.361Z,99804.60
2023-02-15T21:41:50.624Z,99801.95
2023-02-15T21:47:37.181Z,99792.83
2023-02-15T21:52:51.137Z,99783.55
2023-02-15T21:58:08.229Z,99789.30
2023-02-15T22:03:12.453Z,99795.04
2023-02-15T22:08:49.136Z,99792.46
2023-02-15T22:13:55.158Z,99786.65
2023-02-15T22:18:58.859Z,99784.16
2023-02-15T22:24:02.470Z,99781.38
2023-02-15T22:29:06.383Z,99778.95
2023-02-15T22:34:28.121Z,99777.95
2023-02-15T22:39:32.279Z,99769.55
2023-02-15T22:44:44.948Z,99773.74
2023-02-15T22:49:52.318Z,99765.01
2023-02-15T22:55:16.413Z,99763.38
2023-02-15T23:00:23.558Z,99756.27
2023-02-15T23:05:38.434Z,99751.74
2023-02-15T23:10:56.636Z,99749.40
2023-02-15T23:20:15.799Z,99746.62
2023-02-15T23:25:38.480Z,99749.45
2023-02-15T23:30:40.535Z,99746.05
2023-02-15T23:35:43.110Z,99746.19
2023-02-15T23:41:10.394Z,99746.56
2023-02-15T23:46:28.322Z,99741.77
2023-02-15T23:51:31.282Z,99740.18
2023-02-15T23:56:33.758Z,99741.15
